createdAt,value
2019-05-21T00:01:28.739Z,12.75
2019-05-21T00:04:30.658Z,12.97
2019-05-21T00:07:32.900Z,13.00
2019-05-21T00:10:34.934Z,12.90
2019-05-21T00:13:36.844Z,12.73
2019-05-21T00:16:38.873Z,12.53
2019-05-21T00:19:40.741Z,12.38
2019-05-21T00:22:42.697Z,12.27
2019-05-21T00:25:44.706Z,12.28
2019-05-21T00:29:24.062Z,12.36
2019-05-21T00:33:05.200Z,12.43
2019-05-21T00:36:45.999Z,12.36
2019-05-21T00:40:25.223Z,12.32
2019-05-21T00:43:48.868Z,12.24
2019-05-21T00:46:50.838Z,12.12
2019-05-21T00:49:52.832Z,12.04
2019-05-21T00:52:54.805Z,12.08
2019-05-21T00:55:56.844Z,12.05
2019-05-21T00:58:58.857Z,12.11
2019-05-21T01:02:00.880Z,12.33
2019-05-21T01:05:04.018Z,12.60
2019-05-21T01:08:05.998Z,12.75
2019-05-21T01:11:07.911Z,12.85
2019-05-21T01:14:09.871Z,12.91
2019-05-21T01:17:11.836Z,13.03
2019-05-21T01:20:14.345Z,13.05
2019-05-21T01:23:16.265Z,13.08
2019-05-21T01:26:18.222Z,13.12
2019-05-21T01:29:20.142Z,13.14
2019-05-21T01:32:22.175Z,13.18
2019-05-21T01:35:24.115Z,13.08
2019-05-21T01:38:26.237Z,13.09
2019-05-21T01:41:28.186Z,13.12
2019-05-21T01:44:30.187Z,13.10
2019-05-21T01:47:32.111Z,13.08
2019-05-21T01:50:34.216Z,12.96
2019-05-21T01:53:36.230Z,12.92
2019-05-21T01:56:38.191Z,12.74
2019-05-21T01:59:40.162Z,12.61
2019-05-21T02:02:42.245Z,12.55
2019-05-21T02:05:44.249Z,12.52
2019-05-21T02:08:46.265Z,12.45
2019-05-21T02:11:48.204Z,12.43
2019-05-21T02:14:50.162Z,12.53
2019-05-21T02:17:52.085Z,12.60
2019-05-21T02:20:54.049Z,12.49
2019-05-21T02:23:56.010Z,12.28
2019-05-21T02:26:58.634Z,12.29
2019-05-21T02:30:00.693Z,12.35
2019-05-21T02:33:02.723Z,12.44
2019-05-21T02:36:04.759Z,12.47
2019-05-21T02:39:07.280Z,12.44
2019-05-21T02:42:09.253Z,12.51
2019-05-21T02:45:11.770Z,12.60
2019-05-21T02:48:13.806Z,12.66
2019-05-21T02:51:15.910Z,12.67
2019-05-21T02:54:17.898Z,12.65
2019-05-21T02:57:19.932Z,12.61
2019-05-21T03:00:41.184Z,12.61
2019-05-21T03:03:43.323Z,12.58
2019-05-21T03:06:45.567Z,12.52
2019-05-21T03:09:48.560Z,12.58
2019-05-21T03:12:50.511Z,12.67
2019-05-21T03:15:52.585Z,12.74
2019-05-21T03:18:54.524Z,13.03
2019-05-21T03:21:56.730Z,13.46
2019-05-21T03:25:02.172Z,14.02
2019-05-21T03:28:02.641Z,15.02
2019-05-21T03:31:04.625Z,15.98
2019-05-21T03:34:06.696Z,16.27
2019-05-21T03:37:08.721Z,17.06
2019-05-21T03:40:14.959Z,18.37
2019-05-21T03:43:16.927Z,19.55
2019-05-21T03:46:18.935Z,20.65
2019-05-21T03:49:21.431Z,21.19
2019-05-21T03:52:23.481Z,20.17
2019-05-21T03:55:25.556Z,19.33
2019-05-21T03:58:27.502Z,19.33
2019-05-21T04:01:29.479Z,19.00
2019-05-21T04:04:31.412Z,18.93
2019-05-21T04:07:33.471Z,18.59
2019-05-21T04:10:35.568Z,18.13
2019-05-21T04:13:37.500Z,17.89
2019-05-21T04:16:50.332Z,18.12
2019-05-21T04:19:52.858Z,18.26
2019-05-21T04:22:54.933Z,18.40
2019-05-21T04:25:56.857Z,18.78
2019-05-21T04:28:58.878Z,19.04
2019-05-21T04:32:00.936Z,19.30
2019-05-21T04:35:05.059Z,19.13
2019-05-21T04:38:07.704Z,19.23
2019-05-21T04:41:09.833Z,19.37
2019-05-21T04:44:11.790Z,18.99
2019-05-21T04:47:13.838Z,18.84
2019-05-21T04:50:15.949Z,19.02
2019-05-21T04:53:18.112Z,19.64
2019-05-21T04:56:20.205Z,20.41
2019-05-21T04:59:22.290Z,21.05
2019-05-21T05:02:24.302Z,21.53
2019-05-21T05:05:26.321Z,21.53
2019-05-21T05:08:28.384Z,21.65
2019-05-21T05:11:30.391Z,21.95
2019-05-21T05:14:32.298Z,23.26
2019-05-21T05:17:34.419Z,24.22
2019-05-21T05:20:36.496Z,24.98
2019-05-21T05:23:38.564Z,25.19
2019-05-21T05:26:40.564Z,25.17
2019-05-21T05:29:42.542Z,25.14
2019-05-21T05:32:44.515Z,24.87
2019-05-21T05:35:46.556Z,24.80
2019-05-21T05:38:48.833Z,24.27
2019-05-21T05:41:51.270Z,23.45
2019-05-21T05:44:53.322Z,23.17
2019-05-21T05:47:55.353Z,23.15
2019-05-21T05:50:59.161Z,23.34
2019-05-21T05:54:01.177Z,23.37
2019-05-21T05:57:03.159Z,23.56
2019-05-21T06:00:08.473Z,23.86
2019-05-21T06:03:10.538Z,24.30
2019-05-21T06:06:12.751Z,24.98
2019-05-21T06:09:14.825Z,24.91
2019-05-21T06:12:16.845Z,24.43
2019-05-21T06:15:19.088Z,24.05
2019-05-21T06:18:21.048Z,24.12
2019-05-21T06:21:23.101Z,24.06
2019-05-21T06:24:25.051Z,23.95
2019-05-21T06:27:27.105Z,23.89
2019-05-21T06:30:29.084Z,23.95
2019-05-21T06:33:32.451Z,24.06
2019-05-21T06:36:34.605Z,24.09
2019-05-21T06:39:36.664Z,24.44
2019-05-21T06:42:38.719Z,25.50
2019-05-21T06:45:41.254Z,25.79
2019-05-21T06:48:43.217Z,26.23
2019-05-21T06:51:45.206Z,26.35
2019-05-21T06:54:47.205Z,26.24
2019-05-21T06:57:49.253Z,26.48
2019-05-21T07:00:51.283Z,26.21
2019-05-21T07:03:53.318Z,27.33
2019-05-21T07:06:55.317Z,28.76
2019-05-21T07:09:57.443Z,29.76
2019-05-21T07:12:59.478Z,29.85
2019-05-21T07:16:01.533Z,30.14
2019-05-21T07:19:03.814Z,30.13
2019-05-21T07:22:12.631Z,29.88
2019-05-21T07:25:10.330Z,29.63
2019-05-21T07:28:12.386Z,28.88
2019-05-21T07:31:17.393Z,28.14
2019-05-21T07:34:18.348Z,27.51
2019-05-21T07:37:20.323Z,27.33
2019-05-21T07:40:22.534Z,27.26
2019-05-21T07:43:24.667Z,27.08
2019-05-21T07:46:26.683Z,26.90
2019-05-21T07:49:28.726Z,26.47
2019-05-21T07:52:30.786Z,26.42
2019-05-21T07:55:32.736Z,26.28
2019-05-21T07:58:34.757Z,26.39
2019-05-21T08:01:36.722Z,26.40
2019-05-21T08:04:38.842Z,26.54
2019-05-21T08:07:40.920Z,26.85
2019-05-21T08:10:42.977Z,26.94
2019-05-21T08:13:44.968Z,27.22
2019-05-21T08:16:46.941Z,27.57
2019-05-21T08:19:49.002Z,27.72
2019-05-21T08:22:50.993Z,28.19
2019-05-21T08:25:53.041Z,28.43
2019-05-21T08:28:56.012Z,28.90
2019-05-21T08:31:58.223Z,29.35
2019-05-21T08:35:00.189Z,29.85
2019-05-21T08:38:02.178Z,30.03
2019-05-21T08:41:05.511Z,29.98
2019-05-21T12:51:58.552Z,28.10
2019-05-21T12:55:00.661Z,28.08
2019-05-21T12:58:02.540Z,28.20
2019-05-21T13:01:04.645Z,28.33
2019-05-21T13:04:06.603Z,28.39
2019-05-21T13:07:08.473Z,28.76
2019-05-21T13:10:10.840Z,28.96
2019-05-21T13:13:12.775Z,29.09
2019-05-21T13:16:14.664Z,29.09
2019-05-21T13:19:16.584Z,29.04
2019-05-21T13:22:20.274Z,29.01
2019-05-21T13:25:22.220Z,29.12
2019-05-21T13:28:24.163Z,29.14
2019-05-21T13:31:26.080Z,29.20
2019-05-21T13:34:27.974Z,29.16
2019-05-21T13:37:29.895Z,29.07
2019-05-21T13:40:33.872Z,29.02
2019-05-21T13:43:35.848Z,28.97
2019-05-21T13:46:37.796Z,28.85
2019-05-21T13:49:39.762Z,28.72
2019-05-21T13:52:41.739Z,28.66
2019-05-21T13:55:43.875Z,28.71
2019-05-21T13:58:46.165Z,28.66
2019-05-21T14:01:48.260Z,28.64
2019-05-21T14:04:50.324Z,28.61
2019-05-21T14:07:52.226Z,28.51
2019-05-21T14:10:54.372Z,28.60
2019-05-21T14:13:56.301Z,28.59
2019-05-21T14:16:58.236Z,28.55
2019-05-21T14:20:00.165Z,28.51
2019-05-21T14:23:05.274Z,28.46
2019-05-21T14:26:07.338Z,28.44
2019-05-21T14:29:09.345Z,28.40
2019-05-21T14:32:11.269Z,28.29
2019-05-21T14:35:14.471Z,28.17
2019-05-21T14:38:16.371Z,27.97
2019-05-21T14:41:18.333Z,27.79
2019-05-21T14:44:20.438Z,27.71
2019-05-21T14:47:22.358Z,27.59
2019-05-21T14:50:24.668Z,27.52
2019-05-21T14:53:26.554Z,27.48
2019-05-21T14:56:29.130Z,27.35
2019-05-21T14:59:31.094Z,27.28
2019-05-21T15:02:32.993Z,27.20
2019-05-21T15:05:36.849Z,27.12
2019-05-21T15:08:38.780Z,27.10
2019-05-21T15:11:40.686Z,27.06
2019-05-21T15:14:44.515Z,26.94
2019-05-21T15:17:46.528Z,26.74
2019-05-21T15:20:54.472Z,26.69
2019-05-21T15:23:56.458Z,26.75
2019-05-21T15:26:58.554Z,26.70
2019-05-21T15:30:00.521Z,26.66
2019-05-21T15:33:02.555Z,26.71
2019-05-21T15:36:04.580Z,26.74
2019-05-21T15:39:07.110Z,26.81
2019-05-21T15:42:08.994Z,26.92
2019-05-21T15:45:12.125Z,26.69
2019-05-21T15:48:14.492Z,26.60
2019-05-21T15:51:17.446Z,26.66
2019-05-21T15:54:19.415Z,26.60
2019-05-21T15:57:23.253Z,26.58
2019-05-21T16:00:25.558Z,26.51
2019-05-21T16:03:29.307Z,26.41
2019-05-21T16:06:31.234Z,26.34
2019-05-21T16:09:33.198Z,26.39
2019-05-21T16:12:35.090Z,26.32
2019-05-21T16:15:37.115Z,26.22
2019-05-21T16:18:39.027Z,26.05
2019-05-21T16:21:41.213Z,25.85
2019-05-21T16:24:43.195Z,25.61
2019-05-21T16:27:47.373Z,25.34
2019-05-21T16:30:49.376Z,25.27
2019-05-21T16:33:51.480Z,25.24
2019-05-21T16:36:53.726Z,25.14
2019-05-21T16:39:56.518Z,25.10
2019-05-21T16:42:58.398Z,25.06
2019-05-21T16:46:00.538Z,25.03
2019-05-21T16:49:02.450Z,24.81
2019-05-21T16:52:04.347Z,24.55
2019-05-21T16:55:06.633Z,24.07
2019-05-21T16:58:09.810Z,23.46
2019-05-21T17:01:13.306Z,22.81
2019-05-21T17:04:15.232Z,22.31
2019-05-21T17:07:17.084Z,21.89
2019-05-21T17:10:18.940Z,21.60
2019-05-21T17:13:20.808Z,21.27
2019-05-21T17:16:25.028Z,21.16
2019-05-21T17:19:26.951Z,21.11
2019-05-21T17:22:29.838Z,21.10
2019-05-21T17:25:31.681Z,21.19
2019-05-21T17:28:35.111Z,21.18
2019-05-21T17:31:36.926Z,21.17
2019-05-21T17:34:41.135Z,21.11
2019-05-21T17:37:43.024Z,21.07
2019-05-21T17:40:45.033Z,21.05
2019-05-21T17:43:48.463Z,21.03
2019-05-21T17:46:50.957Z,20.98
2019-05-21T17:49:52.957Z,20.97
2019-05-21T17:52:55.671Z,21.06
2019-05-21T17:55:57.577Z,21.05
2019-05-21T17:59:01.685Z,21.02
2019-05-21T18:02:05.558Z,20.96
2019-05-21T18:05:10.741Z,20.92
2019-05-21T18:08:12.915Z,20.88
2019-05-21T18:11:15.481Z,20.91
2019-05-21T18:14:17.882Z,20.96
2019-05-21T18:17:21.646Z,20.97
2019-05-21T18:20:23.737Z,20.85
2019-05-21T18:23:27.250Z,20.85
2019-05-21T18:26:29.191Z,20.87
2019-05-21T18:29:32.510Z,20.89
2019-05-21T18:32:34.522Z,20.79
2019-05-21T18:35:39.785Z,20.74
2019-05-21T18:38:41.742Z,20.56
2019-05-21T18:41:43.761Z,20.53
2019-05-21T18:44:47.014Z,20.51
2019-05-21T18:47:49.001Z,20.47
2019-05-21T18:50:55.765Z,20.42
2019-05-21T18:53:57.706Z,20.30
2019-05-21T18:56:59.666Z,20.25
2019-05-21T19:00:10.556Z,20.21
2019-05-21T19:03:13.756Z,20.22
2019-05-21T19:06:18.934Z,20.22
2019-05-21T19:09:21.030Z,20.21
2019-05-21T19:12:37.578Z,20.19
2019-05-21T19:15:33.992Z,20.13
2019-05-21T19:18:36.240Z,20.05
2019-05-21T19:21:45.206Z,19.93
2019-05-21T19:24:47.276Z,19.78
2019-05-21T19:27:51.883Z,19.70
2019-05-21T19:30:53.951Z,19.63
2019-05-21T19:33:55.925Z,19.57
2019-05-21T19:36:57.816Z,19.48
2019-05-21T19:40:01.993Z,19.48
2019-05-21T19:43:05.249Z,19.42
2019-05-21T19:46:13.073Z,19.46
2019-05-21T19:49:14.989Z,19.45
2019-05-21T19:52:17.031Z,19.45
2019-05-21T19:55:19.787Z,19.55
2019-05-21T19:58:23.041Z,19.63
2019-05-21T20:01:25.207Z,19.66
2019-05-21T20:04:27.685Z,19.62
2019-05-21T20:07:31.105Z,19.68
2019-05-21T20:10:34.257Z,19.71
2019-05-21T20:13:36.470Z,19.66
2019-05-21T20:16:40.570Z,19.65
2019-05-21T20:19:45.768Z,19.63
2019-05-21T20:22:47.871Z,19.54
2019-05-21T20:25:56.646Z,19.49
2019-05-21T20:28:57.116Z,19.45
2019-05-21T20:32:00.322Z,19.42
2019-05-21T20:35:04.067Z,19.38
2019-05-21T20:38:09.870Z,19.26
2019-05-21T20:41:12.313Z,19.16
2019-05-21T20:44:15.596Z,18.92
2019-05-21T20:47:18.286Z,18.78
2019-05-21T20:50:22.363Z,18.63
2019-05-21T20:53:25.009Z,18.52
2019-05-21T20:56:26.923Z,18.30
2019-05-21T20:59:28.876Z,18.19
2019-05-21T21:02:32.906Z,18.11
2019-05-21T21:05:34.985Z,18.08
2019-05-21T21:08:37.160Z,18.03
2019-05-21T21:11:40.484Z,17.98
2019-05-21T21:14:43.870Z,17.93
2019-05-21T21:17:45.880Z,17.87
2019-05-21T21:20:48.243Z,17.75
2019-05-21T21:23:52.185Z,17.71
2019-05-21T21:26:54.204Z,17.65
2019-05-21T21:29:56.176Z,17.65
2019-05-21T21:32:59.488Z,17.56
2019-05-21T21:36:01.376Z,17.47
2019-05-21T21:39:05.954Z,17.39
2019-05-21T21:42:08.455Z,17.26
2019-05-21T21:45:10.629Z,17.20
2019-05-21T21:48:14.478Z,17.29
2019-05-21T21:51:17.594Z,17.28
2019-05-21T21:54:20.238Z,17.35
2019-05-21T21:57:22.220Z,17.50
2019-05-21T22:00:41.813Z,17.55
2019-05-21T22:03:44.880Z,17.65
2019-05-21T22:06:48.282Z,17.56
2019-05-21T22:09:50.867Z,17.52
2019-05-21T22:12:53.275Z,17.55
2019-05-21T22:15:55.786Z,17.46
2019-05-21T22:18:59.575Z,17.39
2019-05-21T22:22:01.572Z,17.30
2019-05-21T22:25:05.244Z,17.28
2019-05-21T22:28:08.737Z,17.26
2019-05-21T22:31:10.775Z,17.25
2019-05-21T22:34:12.905Z,17.26
2019-05-21T22:37:16.623Z,17.30
2019-05-21T22:40:18.590Z,17.31
2019-05-21T22:43:20.626Z,17.27
2019-05-21T22:46:22.467Z,17.30
2019-05-21T22:49:26.211Z,17.29
2019-05-21T22:52:28.272Z,17.45
2019-05-21T22:55:30.198Z,17.55
2019-05-21T22:58:32.144Z,17.47
2019-05-21T23:01:36.570Z,17.54
2019-05-21T23:04:38.710Z,17.51
2019-05-21T23:07:42.461Z,17.44
2019-05-21T23:10:44.814Z,17.50
2019-05-21T23:13:46.665Z,17.58
2019-05-21T23:16:49.099Z,17.64
2019-05-21T23:19:54.576Z,17.70
2019-05-21T23:22:56.581Z,17.70
2019-05-21T23:25:58.947Z,17.72
2019-05-21T23:29:01.252Z,17.71
2019-05-21T23:32:05.067Z,17.63
2019-05-21T23:35:08.901Z,17.69
2019-05-21T23:38:13.207Z,17.69
2019-05-21T23:41:18.744Z,17.71
2019-05-21T23:44:20.673Z,17.75
2019-05-21T23:47:23.297Z,17.73
2019-05-21T23:50:25.592Z,17.73
2019-05-21T23:53:27.710Z,17.75
2019-05-21T23:56:29.998Z,17.80
2019-05-21T23:59:32.020Z,17.76
